sensor_id;sensor_type;location;lat;lon;timestamp;P1;durP1;ratioP1;P2;durP2;ratioP2
14118;SDS011;7138;49.246;9.100;2024-01-10T00:01:45;18.75;;;8.30;;
14118;SDS011;7138;49.246;9.100;2024-01-10T00:04:11;18.08;;;8.73;;
14118;SDS011;7138;49.246;9.100;2024-01-10T00:06:37;22.67;;;8.68;;
14118;SDS011;7138;49.246;9.100;2024-01-10T00:09:03;19.88;;;9.02;;
14118;SDS011;7138;49.246;9.100;2024-01-10T00:11:30;20.13;;;9.73;;
14118;SDS011;7138;49.246;9.100;2024-01-10T00:13:56;17.92;;;8.82;;
14118;SDS011;7138;49.246;9.100;2024-01-10T00:16:24;18.08;;;8.85;;
14118;SDS011;7138;49.246;9.100;2024-01-10T00:18:50;24.50;;;9.90;;
14118;SDS011;7138;49.246;9.100;2024-01-10T00:21:16;19.67;;;9.13;;
14118;SDS011;7138;49.246;9.100;2024-01-10T00:23:42;21.40;;;8.60;;
14118;SDS011;7138;49.246;9.100;2024-01-10T00:26:08;22.50;;;9.73;;
14118;SDS011;7138;49.246;9.100;2024-01-10T00:28:35;19.45;;;9.48;;
14118;SDS011;7138;49.246;9.100;2024-01-10T00:31:01;20.58;;;8.90;;
14118;SDS011;7138;49.246;9.100;2024-01-10T00:33:26;20.10;;;8.98;;
14118;SDS011;7138;49.246;9.100;2024-01-10T00:35:52;17.92;;;8.63;;
14118;SDS011;7138;49.246;9.100;2024-01-10T00:38:18;20.88;;;8.95;;
14118;SDS011;7138;49.246;9.100;2024-01-10T00:40:44;18.25;;;9.07;;
14118;SDS011;7138;49.246;9.100;2024-01-10T00:43:09;20.08;;;9.95;;
14118;SDS011;7138;49.246;9.100;2024-01-10T00:45:37;18.52;;;9.38;;
14118;SDS011;7138;49.246;9.100;2024-01-10T00:48:03;18.58;;;8.93;;
14118;SDS011;7138;49.246;9.100;2024-01-10T00:50:29;23.45;;;9.90;;
14118;SDS011;7138;49.246;9.100;2024-01-10T00:52:55;18.92;;;9.85;;
14118;SDS011;7138;49.246;9.100;2024-01-10T00:55:21;23.27;;;10.15;;
14118;SDS011;7138;49.246;9.100;2024-01-10T00:57:47;21.27;;;9.75;;
14118;SDS011;7138;49.246;9.100;2024-01-10T01:00:13;21.55;;;9.80;;
14118;SDS011;7138;49.246;9.100;2024-01-10T01:02:41;19.48;;;9.32;;
14118;SDS011;7138;49.246;9.100;2024-01-10T01:05:07;23.92;;;10.07;;
14118;SDS011;7138;49.246;9.100;2024-01-10T01:07:33;21.67;;;9.32;;
14118;SDS011;7138;49.246;9.100;2024-01-10T01:09:59;22.85;;;9.80;;
14118;SDS011;7138;49.246;9.100;2024-01-10T01:12:25;22.40;;;10.05;;
14118;SDS011;7138;49.246;9.100;2024-01-10T01:14:51;19.90;;;9.63;;
14118;SDS011;7138;49.246;9.100;2024-01-10T01:17:17;22.58;;;10.43;;
14118;SDS011;7138;49.246;9.100;2024-01-10T01:19:44;24.73;;;10.63;;
14118;SDS011;7138;49.246;9.100;2024-01-10T01:22:10;17.92;;;9.10;;
14118;SDS011;7138;49.246;9.100;2024-01-10T01:24:35;23.30;;;10.32;;
14118;SDS011;7138;49.246;9.100;2024-01-10T01:27:02;22.33;;;10.38;;
14118;SDS011;7138;49.246;9.100;2024-01-10T01:29:28;24.90;;;11.43;;
14118;SDS011;7138;49.246;9.100;2024-01-10T01:31:54;22.35;;;10.40;;
14118;SDS011;7138;49.246;9.100;2024-01-10T01:34:20;23.10;;;11.02;;
14118;SDS011;7138;49.246;9.100;2024-01-10T01:36:47;24.50;;;10.63;;
14118;SDS011;7138;49.246;9.100;2024-01-10T01:39:14;22.77;;;9.93;;
14118;SDS011;7138;49.246;9.100;2024-01-10T01:41:40;20.00;;;9.98;;
14118;SDS011;7138;49.246;9.100;2024-01-10T01:44:06;23.55;;;10.70;;
14118;SDS011;7138;49.246;9.100;2024-01-10T01:46:32;19.17;;;9.77;;
14118;SDS011;7138;49.246;9.100;2024-01-10T01:48:58;21.58;;;10.30;;
14118;SDS011;7138;49.246;9.100;2024-01-10T01:51:24;24.30;;;10.93;;
14118;SDS011;7138;49.246;9.100;2024-01-10T01:56:21;23.98;;;10.73;;
14118;SDS011;7138;49.246;9.100;2024-01-10T01:58:49;20.83;;;9.65;;
14118;SDS011;7138;49.246;9.100;2024-01-10T02:01:16;23.85;;;10.38;;
14118;SDS011;7138;49.246;9.100;2024-01-10T02:03:46;20.08;;;10.00;;
14118;SDS011;7138;49.246;9.100;2024-01-10T02:06:12;22.25;;;10.55;;
14118;SDS011;7138;49.246;9.100;2024-01-10T02:08:38;22.40;;;9.55;;
14118;SDS011;7138;49.246;9.100;2024-01-10T02:11:06;21.13;;;9.82;;
14118;SDS011;7138;49.246;9.100;2024-01-10T02:13:32;19.95;;;10.23;;
14118;SDS011;7138;49.246;9.100;2024-01-10T02:15:58;20.02;;;9.98;;
14118;SDS011;7138;49.246;9.100;2024-01-10T02:18:25;25.13;;;10.23;;
14118;SDS011;7138;49.246;9.100;2024-01-10T02:20:51;23.15;;;10.43;;
14118;SDS011;7138;49.246;9.100;2024-01-10T02:23:17;22.50;;;9.93;;
14118;SDS011;7138;49.246;9.100;2024-01-10T02:25:44;26.05;;;9.63;;
14118;SDS011;7138;49.246;9.100;2024-01-10T02:28:10;21.02;;;11.00;;
14118;SDS011;7138;49.246;9.100;2024-01-10T02:30:37;22.33;;;10.73;;
14118;SDS011;7138;49.246;9.100;2024-01-10T02:33:03;21.75;;;10.35;;
14118;SDS011;7138;49.246;9.100;2024-01-10T02:35:29;23.30;;;10.73;;
14118;SDS011;7138;49.246;9.100;2024-01-10T02:37:57;20.48;;;10.13;;
14118;SDS011;7138;49.246;9.100;2024-01-10T02:40:24;21.65;;;10.00;;
14118;SDS011;7138;49.246;9.100;2024-01-10T02:42:51;23.40;;;11.23;;
14118;SDS011;7138;49.246;9.100;2024-01-10T02:45:17;21.15;;;9.68;;
14118;SDS011;7138;49.246;9.100;2024-01-10T02:47:44;24.13;;;10.50;;
14118;SDS011;7138;49.246;9.100;2024-01-10T02:50:10;21.33;;;10.95;;
14118;SDS011;7138;49.246;9.100;2024-01-10T02:52:36;19.65;;;9.70;;
14118;SDS011;7138;49.246;9.100;2024-01-10T02:55:02;25.15;;;10.85;;
14118;SDS011;7138;49.246;9.100;2024-01-10T02:57:29;23.17;;;10.65;;
14118;SDS011;7138;49.246;9.100;2024-01-10T02:59:56;25.38;;;10.63;;
14118;SDS011;7138;49.246;9.100;2024-01-10T03:02:22;28.23;;;10.45;;
14118;SDS011;7138;49.246;9.100;2024-01-10T03:04:51;22.25;;;9.40;;
14118;SDS011;7138;49.246;9.100;2024-01-10T03:07:16;19.92;;;10.25;;
14118;SDS011;7138;49.246;9.100;2024-01-10T03:09:42;24.02;;;10.02;;
14118;SDS011;7138;49.246;9.100;2024-01-10T03:12:08;23.00;;;10.73;;
14118;SDS011;7138;49.246;9.100;2024-01-10T03:14:36;23.60;;;11.65;;
14118;SDS011;7138;49.246;9.100;2024-01-10T03:17:03;29.42;;;12.60;;
14118;SDS011;7138;49.246;9.100;2024-01-10T03:19:30;23.20;;;10.70;;
14118;SDS011;7138;49.246;9.100;2024-01-10T03:21:55;21.05;;;9.82;;
14118;SDS011;7138;49.246;9.100;2024-01-10T03:24:21;21.17;;;9.63;;
14118;SDS011;7138;49.246;9.100;2024-01-10T03:26:51;20.77;;;9.82;;
14118;SDS011;7138;49.246;9.100;2024-01-10T03:29:17;26.33;;;10.88;;
14118;SDS011;7138;49.246;9.100;2024-01-10T03:31:43;23.73;;;10.38;;
14118;SDS011;7138;49.246;9.100;2024-01-10T03:34:10;19.73;;;10.10;;
14118;SDS011;7138;49.246;9.100;2024-01-10T03:36:36;25.52;;;11.48;;
14118;SDS011;7138;49.246;9.100;2024-01-10T03:39:02;22.83;;;10.52;;
14118;SDS011;7138;49.246;9.100;2024-01-10T03:41:28;20.90;;;10.05;;
14118;SDS011;7138;49.246;9.100;2024-01-10T03:43:53;23.15;;;10.02;;
14118;SDS011;7138;49.246;9.100;2024-01-10T03:46:19;22.02;;;10.63;;
14118;SDS011;7138;49.246;9.100;2024-01-10T03:48:45;26.27;;;11.00;;
14118;SDS011;7138;49.246;9.100;2024-01-10T03:51:15;23.53;;;11.03;;
14118;SDS011;7138;49.246;9.100;2024-01-10T03:53:43;18.38;;;7.50;;
14118;SDS011;7138;49.246;9.100;2024-01-10T03:56:09;23.15;;;9.95;;
14118;SDS011;7138;49.246;9.100;2024-01-10T03:58:36;21.35;;;9.30;;
14118;SDS011;7138;49.246;9.100;2024-01-10T04:01:04;23.35;;;10.18;;
14118;SDS011;7138;49.246;9.100;2024-01-10T04:03:31;21.55;;;10.73;;
14118;SDS011;7138;49.246;9.100;2024-01-10T04:05:57;22.73;;;10.85;;
14118;SDS011;7138;49.246;9.100;2024-01-10T04:08:24;21.45;;;10.07;;
14118;SDS011;7138;49.246;9.100;2024-01-10T04:10:50;23.38;;;10.68;;
14118;SDS011;7138;49.246;9.100;2024-01-10T04:13:16;19.80;;;9.88;;
14118;SDS011;7138;49.246;9.100;2024-01-10T04:15:42;19.83;;;10.02;;
14118;SDS011;7138;49.246;9.100;2024-01-10T04:18:08;20.98;;;9.50;;
14118;SDS011;7138;49.246;9.100;2024-01-10T04:20:34;22.52;;;10.35;;
14118;SDS011;7138;49.246;9.100;2024-01-10T04:23:00;20.42;;;10.27;;
14118;SDS011;7138;49.246;9.100;2024-01-10T04:25:27;25.77;;;10.73;;
14118;SDS011;7138;49.246;9.100;2024-01-10T04:27:53;24.73;;;10.68;;
14118;SDS011;7138;49.246;9.100;2024-01-10T04:30:19;28.58;;;12.35;;
14118;SDS011;7138;49.246;9.100;2024-01-10T04:32:44;21.60;;;9.88;;
14118;SDS011;7138;49.246;9.100;2024-01-10T04:35:10;26.77;;;10.95;;
14118;SDS011;7138;49.246;9.100;2024-01-10T04:37:36;23.48;;;9.40;;
14118;SDS011;7138;49.246;9.100;2024-01-10T04:40:02;23.15;;;10.77;;
14118;SDS011;7138;49.246;9.100;2024-01-10T04:42:31;23.00;;;10.10;;
14118;SDS011;7138;49.246;9.100;2024-01-10T04:44:57;21.48;;;9.52;;
14118;SDS011;7138;49.246;9.100;2024-01-10T04:47:23;23.80;;;10.70;;
14118;SDS011;7138;49.246;9.100;2024-01-10T04:49:48;24.17;;;10.48;;
14118;SDS011;7138;49.246;9.100;2024-01-10T04:52:14;22.70;;;9.73;;
14118;SDS011;7138;49.246;9.100;2024-01-10T04:54:40;23.90;;;10.07;;
14118;SDS011;7138;49.246;9.100;2024-01-10T04:57:06;21.70;;;10.30;;
14118;SDS011;7138;49.246;9.100;2024-01-10T04:59:33;22.98;;;10.68;;
14118;SDS011;7138;49.246;9.100;2024-01-10T05:01:59;21.95;;;11.13;;
14118;SDS011;7138;49.246;9.100;2024-01-10T05:04:25;24.55;;;10.80;;
14118;SDS011;7138;49.246;9.100;2024-01-10T05:06:51;25.30;;;11.52;;
14118;SDS011;7138;49.246;9.100;2024-01-10T05:09:17;21.70;;;10.57;;
14118;SDS011;7138;49.246;9.100;2024-01-10T05:11:43;21.83;;;10.48;;
14118;SDS011;7138;49.246;9.100;2024-01-10T05:14:13;22.50;;;9.63;;
14118;SDS011;7138;49.246;9.100;2024-01-10T05:16:40;22.05;;;10.50;;
14118;SDS011;7138;49.246;9.100;2024-01-10T05:19:06;21.17;;;10.38;;
14118;SDS011;7138;49.246;9.100;2024-01-10T05:21:32;19.17;;;10.20;;
14118;SDS011;7138;49.246;9.100;2024-01-10T05:23:58;23.98;;;10.35;;
14118;SDS011;7138;49.246;9.100;2024-01-10T05:26:24;21.65;;;10.15;;
14118;SDS011;7138;49.246;9.100;2024-01-10T05:28:50;20.92;;;10.90;;
14118;SDS011;7138;49.246;9.100;2024-01-10T05:31:16;23.10;;;10.65;;
14118;SDS011;7138;49.246;9.100;2024-01-10T05:33:43;21.90;;;10.25;;
14118;SDS011;7138;49.246;9.100;2024-01-10T05:36:09;25.88;;;12.15;;
14118;SDS011;7138;49.246;9.100;2024-01-10T05:38:38;23.38;;;10.30;;
14118;SDS011;7138;49.246;9.100;2024-01-10T05:41:05;21.98;;;10.30;;
14118;SDS011;7138;49.246;9.100;2024-01-10T05:43:31;26.30;;;11.40;;
14118;SDS011;7138;49.246;9.100;2024-01-10T05:45:56;23.33;;;10.77;;
14118;SDS011;7138;49.246;9.100;2024-01-10T05:48:23;21.98;;;10.68;;
14118;SDS011;7138;49.246;9.100;2024-01-10T05:50:50;25.08;;;11.52;;
14118;SDS011;7138;49.246;9.100;2024-01-10T05:53:16;24.35;;;11.43;;
14118;SDS011;7138;49.246;9.100;2024-01-10T05:55:42;26.10;;;11.20;;
14118;SDS011;7138;49.246;9.100;2024-01-10T05:58:08;25.45;;;11.77;;
14118;SDS011;7138;49.246;9.100;2024-01-10T06:00:34;26.05;;;10.18;;
14118;SDS011;7138;49.246;9.100;2024-01-10T06:03:00;21.67;;;10.02;;
14118;SDS011;7138;49.246;9.100;2024-01-10T06:05:26;22.33;;;9.75;;
14118;SDS011;7138;49.246;9.100;2024-01-10T06:07:53;24.13;;;10.88;;
14118;SDS011;7138;49.246;9.100;2024-01-10T06:10:19;22.65;;;11.45;;
14118;SDS011;7138;49.246;9.100;2024-01-10T06:12:45;25.58;;;11.38;;
14118;SDS011;7138;49.246;9.100;2024-01-10T06:15:11;20.45;;;9.80;;
14118;SDS011;7138;49.246;9.100;2024-01-10T06:17:37;25.10;;;10.90;;
14118;SDS011;7138;49.246;9.100;2024-01-10T06:20:03;25.63;;;11.02;;
14118;SDS011;7138;49.246;9.100;2024-01-10T06:22:31;25.27;;;11.27;;
14118;SDS011;7138;49.246;9.100;2024-01-10T06:24:59;25.33;;;11.60;;
14118;SDS011;7138;49.246;9.100;2024-01-10T06:27:25;24.20;;;10.95;;
14118;SDS011;7138;49.246;9.100;2024-01-10T06:29:51;20.85;;;10.40;;
14118;SDS011;7138;49.246;9.100;2024-01-10T06:32:17;25.42;;;11.20;;
14118;SDS011;7138;49.246;9.100;2024-01-10T06:34:42;29.70;;;11.80;;
14118;SDS011;7138;49.246;9.100;2024-01-10T06:37:08;25.08;;;10.75;;
14118;SDS011;7138;49.246;9.100;2024-01-10T06:39:35;22.27;;;9.55;;
14118;SDS011;7138;49.246;9.100;2024-01-10T06:42:03;22.92;;;10.52;;
14118;SDS011;7138;49.246;9.100;2024-01-10T06:44:31;24.58;;;10.98;;
14118;SDS011;7138;49.246;9.100;2024-01-10T06:46:57;28.23;;;11.88;;
14118;SDS011;7138;49.246;9.100;2024-01-10T06:49:23;22.52;;;11.23;;
14118;SDS011;7138;49.246;9.100;2024-01-10T06:51:48;20.20;;;10.38;;
14118;SDS011;7138;49.246;9.100;2024-01-10T06:54:14;23.77;;;11.75;;
14118;SDS011;7138;49.246;9.100;2024-01-10T06:56:40;25.20;;;11.15;;
14118;SDS011;7138;49.246;9.100;2024-01-10T06:59:08;22.25;;;10.48;;
14118;SDS011;7138;49.246;9.100;2024-01-10T07:01:33;24.27;;;10.65;;
14118;SDS011;7138;49.246;9.100;2024-01-10T07:03:59;24.35;;;10.73;;
14118;SDS011;7138;49.246;9.100;2024-01-10T07:06:25;23.95;;;10.90;;
14118;SDS011;7138;49.246;9.100;2024-01-10T07:08:51;22.15;;;10.20;;
14118;SDS011;7138;49.246;9.100;2024-01-10T07:11:17;22.10;;;10.75;;
14118;SDS011;7138;49.246;9.100;2024-01-10T07:13:44;24.30;;;11.35;;
14118;SDS011;7138;49.246;9.100;2024-01-10T07:16:12;22.38;;;9.90;;
14118;SDS011;7138;49.246;9.100;2024-01-10T07:18:40;20.50;;;10.00;;
14118;SDS011;7138;49.246;9.100;2024-01-10T07:21:06;23.52;;;10.77;;
14118;SDS011;7138;49.246;9.100;2024-01-10T07:23:34;25.52;;;11.63;;
14118;SDS011;7138;49.246;9.100;2024-01-10T07:26:00;24.13;;;10.85;;
14118;SDS011;7138;49.246;9.100;2024-01-10T07:28:26;23.20;;;10.90;;
14118;SDS011;7138;49.246;9.100;2024-01-10T07:30:52;21.17;;;10.45;;
14118;SDS011;7138;49.246;9.100;2024-01-10T07:33:19;22.67;;;10.82;;
14118;SDS011;7138;49.246;9.100;2024-01-10T07:35:45;26.13;;;10.98;;
14118;SDS011;7138;49.246;9.100;2024-01-10T07:38:11;19.85;;;10.13;;
14118;SDS011;7138;49.246;9.100;2024-01-10T07:40:37;23.58;;;10.75;;
14118;SDS011;7138;49.246;9.100;2024-01-10T07:43:02;22.60;;;9.68;;
14118;SDS011;7138;49.246;9.100;2024-01-10T07:45:29;20.75;;;10.40;;
14118;SDS011;7138;49.246;9.100;2024-01-10T07:47:55;21.50;;;10.32;;
14118;SDS011;7138;49.246;9.100;2024-01-10T07:50:22;24.58;;;10.35;;
14118;SDS011;7138;49.246;9.100;2024-01-10T07:52:52;21.92;;;10.07;;
14118;SDS011;7138;49.246;9.100;2024-01-10T07:55:18;20.58;;;9.65;;
14118;SDS011;7138;49.246;9.100;2024-01-10T07:57:44;22.52;;;11.05;;
14118;SDS011;7138;49.246;9.100;2024-01-10T08:00:10;21.98;;;10.68;;
14118;SDS011;7138;49.246;9.100;2024-01-10T08:02:36;24.33;;;10.18;;
14118;SDS011;7138;49.246;9.100;2024-01-10T08:05:02;21.13;;;10.52;;
14118;SDS011;7138;49.246;9.100;2024-01-10T08:07:36;25.95;;;10.75;;
14118;SDS011;7138;49.246;9.100;2024-01-10T08:10:03;21.88;;;10.90;;
14118;SDS011;7138;49.246;9.100;2024-01-10T08:12:29;23.05;;;11.52;;
14118;SDS011;7138;49.246;9.100;2024-01-10T08:14:55;22.05;;;11.30;;
14118;SDS011;7138;49.246;9.100;2024-01-10T08:17:21;23.25;;;11.55;;
14118;SDS011;7138;49.246;9.100;2024-01-10T08:19:48;22.13;;;10.38;;
14118;SDS011;7138;49.246;9.100;2024-01-10T08:22:14;22.02;;;10.90;;
14118;SDS011;7138;49.246;9.100;2024-01-10T08:24:41;21.55;;;9.88;;
14118;SDS011;7138;49.246;9.100;2024-01-10T08:27:09;16.52;;;7.82;;
14118;SDS011;7138;49.246;9.100;2024-01-10T08:29:35;23.75;;;9.98;;
14118;SDS011;7138;49.246;9.100;2024-01-10T08:32:00;23.40;;;10.38;;
14118;SDS011;7138;49.246;9.100;2024-01-10T08:34:28;23.15;;;10.88;;
14118;SDS011;7138;49.246;9.100;2024-01-10T08:36:54;22.08;;;10.80;;
14118;SDS011;7138;49.246;9.100;2024-01-10T08:39:20;22.08;;;11.23;;
14118;SDS011;7138;49.246;9.100;2024-01-10T08:41:48;21.98;;;9.95;;
14118;SDS011;7138;49.246;9.100;2024-01-10T08:44:14;23.75;;;10.75;;
14118;SDS011;7138;49.246;9.100;2024-01-10T08:46:40;22.27;;;11.50;;
14118;SDS011;7138;49.246;9.100;2024-01-10T08:49:05;21.27;;;10.75;;
14118;SDS011;7138;49.246;9.100;2024-01-10T08:51:31;24.35;;;11.57;;
14118;SDS011;7138;49.246;9.100;2024-01-10T08:53:57;23.20;;;11.15;;
14118;SDS011;7138;49.246;9.100;2024-01-10T08:56:23;21.85;;;10.68;;
14118;SDS011;7138;49.246;9.100;2024-01-10T08:58:50;22.70;;;10.95;;
14118;SDS011;7138;49.246;9.100;2024-01-10T09:01:16;20.23;;;9.80;;
14118;SDS011;7138;49.246;9.100;2024-01-10T09:03:42;22.42;;;11.55;;
14118;SDS011;7138;49.246;9.100;2024-01-10T09:06:08;24.45;;;11.13;;
14118;SDS011;7138;49.246;9.100;2024-01-10T09:08:33;23.67;;;11.00;;
14118;SDS011;7138;49.246;9.100;2024-01-10T09:11:00;21.70;;;11.18;;
14118;SDS011;7138;49.246;9.100;2024-01-10T09:13:26;24.35;;;11.45;;
14118;SDS011;7138;49.246;9.100;2024-01-10T09:15:53;24.55;;;11.50;;
14118;SDS011;7138;49.246;9.100;2024-01-10T09:18:19;22.10;;;10.80;;
14118;SDS011;7138;49.246;9.100;2024-01-10T09:20:45;24.35;;;11.02;;
14118;SDS011;7138;49.246;9.100;2024-01-10T09:23:13;23.80;;;11.18;;
14118;SDS011;7138;49.246;9.100;2024-01-10T09:25:39;21.67;;;10.77;;
14118;SDS011;7138;49.246;9.100;2024-01-10T09:28:05;21.77;;;11.07;;
14118;SDS011;7138;49.246;9.100;2024-01-10T09:30:31;24.48;;;11.18;;
14118;SDS011;7138;49.246;9.100;2024-01-10T09:32:58;20.92;;;11.02;;
14118;SDS011;7138;49.246;9.100;2024-01-10T09:35:25;23.38;;;11.20;;
14118;SDS011;7138;49.246;9.100;2024-01-10T09:37:51;20.05;;;10.32;;
14118;SDS011;7138;49.246;9.100;2024-01-10T09:40:18;26.75;;;11.93;;
14118;SDS011;7138;49.246;9.100;2024-01-10T09:42:46;24.80;;;11.85;;
14118;SDS011;7138;49.246;9.100;2024-01-10T09:45:21;24.08;;;11.25;;
14118;SDS011;7138;49.246;9.100;2024-01-10T09:47:51;24.98;;;11.90;;
14118;SDS011;7138;49.246;9.100;2024-01-10T09:50:22;21.60;;;11.18;;
14118;SDS011;7138;49.246;9.100;2024-01-10T09:52:50;23.73;;;11.43;;
14118;SDS011;7138;49.246;9.100;2024-01-10T09:55:18;24.83;;;13.23;;
14118;SDS011;7138;49.246;9.100;2024-01-10T09:57:48;23.58;;;11.45;;
14118;SDS011;7138;49.246;9.100;2024-01-10T10:00:15;24.30;;;12.50;;
14118;SDS011;7138;49.246;9.100;2024-01-10T10:02:42;23.70;;;12.43;;
14118;SDS011;7138;49.246;9.100;2024-01-10T10:05:12;25.02;;;12.02;;
14118;SDS011;7138;49.246;9.100;2024-01-10T10:07:44;25.10;;;12.32;;
14118;SDS011;7138;49.246;9.100;2024-01-10T10:10:11;18.77;;;9.48;;
14118;SDS011;7138;49.246;9.100;2024-01-10T10:12:41;28.08;;;13.93;;
14118;SDS011;7138;49.246;9.100;2024-01-10T10:15:10;23.67;;;12.25;;
14118;SDS011;7138;49.246;9.100;2024-01-10T10:17:38;21.25;;;11.85;;
14118;SDS011;7138;49.246;9.100;2024-01-10T10:20:11;24.05;;;12.20;;
14118;SDS011;7138;49.246;9.100;2024-01-10T10:22:39;25.23;;;12.90;;
14118;SDS011;7138;49.246;9.100;2024-01-10T10:25:22;22.33;;;12.13;;
14118;SDS011;7138;49.246;9.100;2024-01-10T10:27:50;26.40;;;12.80;;
14118;SDS011;7138;49.246;9.100;2024-01-10T10:30:17;22.45;;;12.20;;
14118;SDS011;7138;49.246;9.100;2024-01-10T10:32:43;25.95;;;12.40;;
14118;SDS011;7138;49.246;9.100;2024-01-10T10:35:09;25.08;;;13.00;;
14118;SDS011;7138;49.246;9.100;2024-01-10T10:37:35;26.17;;;12.90;;
14118;SDS011;7138;49.246;9.100;2024-01-10T10:40:03;24.73;;;12.10;;
14118;SDS011;7138;49.246;9.100;2024-01-10T10:42:30;21.92;;;12.85;;
14118;SDS011;7138;49.246;9.100;2024-01-10T10:45:00;23.92;;;11.98;;
14118;SDS011;7138;49.246;9.100;2024-01-10T10:47:29;26.67;;;12.77;;
14118;SDS011;7138;49.246;9.100;2024-01-10T10:50:01;22.67;;;11.95;;
14118;SDS011;7138;49.246;9.100;2024-01-10T10:52:30;23.67;;;12.97;;
14118;SDS011;7138;49.246;9.100;2024-01-10T10:54:57;19.63;;;11.50;;
14118;SDS011;7138;49.246;9.100;2024-01-10T10:57:25;21.42;;;12.48;;
14118;SDS011;7138;49.246;9.100;2024-01-10T10:59:52;26.70;;;12.32;;
14118;SDS011;7138;49.246;9.100;2024-01-10T11:02:20;24.50;;;12.85;;
14118;SDS011;7138;49.246;9.100;2024-01-10T11:04:49;26.50;;;13.18;;
14118;SDS011;7138;49.246;9.100;2024-01-10T11:07:18;25.70;;;13.20;;
14118;SDS011;7138;49.246;9.100;2024-01-10T11:09:45;26.33;;;12.93;;
14118;SDS011;7138;49.246;9.100;2024-01-10T11:12:18;24.88;;;13.00;;
14118;SDS011;7138;49.246;9.100;2024-01-10T11:15:14;27.25;;;13.48;;
14118;SDS011;7138;49.246;9.100;2024-01-10T11:18:03;30.52;;;13.15;;
14118;SDS011;7138;49.246;9.100;2024-01-10T11:20:54;22.42;;;11.70;;
14118;SDS011;7138;49.246;9.100;2024-01-10T11:23:40;26.63;;;13.00;;
14118;SDS011;7138;49.246;9.100;2024-01-10T11:26:10;25.20;;;13.82;;
14118;SDS011;7138;49.246;9.100;2024-01-10T11:28:39;26.92;;;13.93;;
14118;SDS011;7138;49.246;9.100;2024-01-10T11:31:06;23.73;;;12.23;;
14118;SDS011;7138;49.246;9.100;2024-01-10T11:33:34;25.50;;;13.25;;
14118;SDS011;7138;49.246;9.100;2024-01-10T11:38:56;27.17;;;14.00;;
14118;SDS011;7138;49.246;9.100;2024-01-10T11:41:27;24.73;;;13.40;;
14118;SDS011;7138;49.246;9.100;2024-01-10T11:46:57;29.20;;;14.43;;
14118;SDS011;7138;49.246;9.100;2024-01-10T11:49:24;28.70;;;13.82;;
14118;SDS011;7138;49.246;9.100;2024-01-10T11:51:52;27.45;;;14.18;;
14118;SDS011;7138;49.246;9.100;2024-01-10T11:54:37;27.08;;;12.80;;
14118;SDS011;7138;49.246;9.100;2024-01-10T11:57:07;28.55;;;13.75;;
14118;SDS011;7138;49.246;9.100;2024-01-10T11:59:37;24.08;;;13.27;;
14118;SDS011;7138;49.246;9.100;2024-01-10T12:02:05;27.27;;;13.65;;
14118;SDS011;7138;49.246;9.100;2024-01-10T12:04:33;24.40;;;13.52;;
14118;SDS011;7138;49.246;9.100;2024-01-10T12:06:59;25.95;;;13.52;;
14118;SDS011;7138;49.246;9.100;2024-01-10T12:09:27;25.52;;;13.27;;
14118;SDS011;7138;49.246;9.100;2024-01-10T12:11:53;23.98;;;13.70;;
14118;SDS011;7138;49.246;9.100;2024-01-10T12:14:19;28.83;;;14.93;;
14118;SDS011;7138;49.246;9.100;2024-01-10T12:16:47;23.55;;;13.45;;
14118;SDS011;7138;49.246;9.100;2024-01-10T12:19:13;24.95;;;13.15;;
14118;SDS011;7138;49.246;9.100;2024-01-10T12:21:39;24.52;;;13.20;;
14118;SDS011;7138;49.246;9.100;2024-01-10T12:24:05;28.92;;;15.07;;
14118;SDS011;7138;49.246;9.100;2024-01-10T12:26:31;25.55;;;14.70;;
14118;SDS011;7138;49.246;9.100;2024-01-10T12:28:58;25.45;;;13.88;;
14118;SDS011;7138;49.246;9.100;2024-01-10T12:31:26;26.55;;;13.90;;
14118;SDS011;7138;49.246;9.100;2024-01-10T12:33:55;26.73;;;15.25;;
14118;SDS011;7138;49.246;9.100;2024-01-10T12:36:22;25.13;;;13.60;;
14118;SDS011;7138;49.246;9.100;2024-01-10T12:38:48;27.63;;;13.73;;
14118;SDS011;7138;49.246;9.100;2024-01-10T12:41:15;26.98;;;13.90;;
14118;SDS011;7138;49.246;9.100;2024-01-10T12:43:43;23.85;;;13.25;;
14118;SDS011;7138;49.246;9.100;2024-01-10T12:46:15;29.15;;;14.63;;
14118;SDS011;7138;49.246;9.100;2024-01-10T12:48:41;25.80;;;13.50;;
14118;SDS011;7138;49.246;9.100;2024-01-10T12:51:09;27.05;;;13.82;;
14118;SDS011;7138;49.246;9.100;2024-01-10T12:53:36;26.55;;;13.45;;
14118;SDS011;7138;49.246;9.100;2024-01-10T12:56:05;24.52;;;14.75;;
14118;SDS011;7138;49.246;9.100;2024-01-10T12:58:33;24.02;;;13.02;;
14118;SDS011;7138;49.246;9.100;2024-01-10T13:01:01;28.20;;;14.00;;
14118;SDS011;7138;49.246;9.100;2024-01-10T13:03:28;26.67;;;14.98;;
14118;SDS011;7138;49.246;9.100;2024-01-10T13:05:55;25.15;;;13.05;;
14118;SDS011;7138;49.246;9.100;2024-01-10T13:08:22;24.25;;;13.45;;
14118;SDS011;7138;49.246;9.100;2024-01-10T13:10:48;32.10;;;15.93;;
14118;SDS011;7138;49.246;9.100;2024-01-10T13:13:14;29.27;;;15.18;;
14118;SDS011;7138;49.246;9.100;2024-01-10T13:15:42;29.48;;;14.23;;
14118;SDS011;7138;49.246;9.100;2024-01-10T13:18:08;25.65;;;13.45;;
14118;SDS011;7138;49.246;9.100;2024-01-10T13:20:38;29.55;;;14.57;;
14118;SDS011;7138;49.246;9.100;2024-01-10T13:23:04;27.67;;;14.82;;
14118;SDS011;7138;49.246;9.100;2024-01-10T13:25:31;25.90;;;14.02;;
14118;SDS011;7138;49.246;9.100;2024-01-10T13:27:57;26.10;;;13.60;;
14118;SDS011;7138;49.246;9.100;2024-01-10T13:30:23;26.67;;;14.10;;
14118;SDS011;7138;49.246;9.100;2024-01-10T13:32:49;26.15;;;15.05;;
14118;SDS011;7138;49.246;9.100;2024-01-10T13:35:15;25.70;;;14.25;;
14118;SDS011;7138;49.246;9.100;2024-01-10T13:37:41;26.63;;;13.18;;
14118;SDS011;7138;49.246;9.100;2024-01-10T13:40:08;29.60;;;15.80;;
14118;SDS011;7138;49.246;9.100;2024-01-10T13:42:38;27.33;;;14.88;;
14118;SDS011;7138;49.246;9.100;2024-01-10T13:45:05;28.45;;;15.65;;
14118;SDS011;7138;49.246;9.100;2024-01-10T13:47:32;30.80;;;15.23;;
14118;SDS011;7138;49.246;9.100;2024-01-10T13:50:01;25.93;;;14.57;;
14118;SDS011;7138;49.246;9.100;2024-01-10T13:52:28;28.58;;;15.73;;
14118;SDS011;7138;49.246;9.100;2024-01-10T13:54:54;29.17;;;15.18;;
14118;SDS011;7138;49.246;9.100;2024-01-10T13:57:21;28.70;;;15.02;;
14118;SDS011;7138;49.246;9.100;2024-01-10T13:59:48;28.50;;;15.32;;
14118;SDS011;7138;49.246;9.100;2024-01-10T14:02:14;27.23;;;15.00;;
14118;SDS011;7138;49.246;9.100;2024-01-10T14:04:41;26.25;;;14.43;;
14118;SDS011;7138;49.246;9.100;2024-01-10T14:07:07;28.27;;;15.07;;
14118;SDS011;7138;49.246;9.100;2024-01-10T14:09:33;29.15;;;15.13;;
14118;SDS011;7138;49.246;9.100;2024-01-10T14:11:59;30.33;;;15.90;;
14118;SDS011;7138;49.246;9.100;2024-01-10T14:14:25;31.63;;;16.67;;
14118;SDS011;7138;49.246;9.100;2024-01-10T14:16:52;27.70;;;15.55;;
14118;SDS011;7138;49.246;9.100;2024-01-10T14:19:19;28.83;;;14.82;;
14118;SDS011;7138;49.246;9.100;2024-01-10T14:21:45;28.55;;;16.23;;
14118;SDS011;7138;49.246;9.100;2024-01-10T14:24:11;30.90;;;16.05;;
14118;SDS011;7138;49.246;9.100;2024-01-10T14:26:37;29.65;;;14.88;;
14118;SDS011;7138;49.246;9.100;2024-01-10T14:29:04;28.00;;;15.73;;
14118;SDS011;7138;49.246;9.100;2024-01-10T14:31:29;29.60;;;15.63;;
14118;SDS011;7138;49.246;9.100;2024-01-10T14:33:57;27.33;;;15.35;;
14118;SDS011;7138;49.246;9.100;2024-01-10T14:36:23;27.52;;;14.98;;
14118;SDS011;7138;49.246;9.100;2024-01-10T14:38:48;27.17;;;14.90;;
14118;SDS011;7138;49.246;9.100;2024-01-10T14:41:15;29.75;;;16.55;;
14118;SDS011;7138;49.246;9.100;2024-01-10T14:43:42;28.00;;;15.02;;